createdAt,value
2024-03-29T00:01:15.893Z,61.02
2024-03-29T00:05:14.897Z,70.63
2024-03-29T00:09:12.865Z,68.86
2024-03-29T00:13:09.875Z,60.82
2024-03-29T00:17:06.868Z,52.32
2024-03-29T00:21:03.869Z,51.83
2024-03-29T00:25:01.911Z,53.81
2024-03-29T00:28:58.932Z,54.02
2024-03-29T00:32:56.850Z,54.89
2024-03-29T00:36:53.836Z,57.21
2024-03-29T00:40:50.897Z,58.08
2024-03-29T00:44:47.868Z,59.93
2024-03-29T00:48:44.839Z,60.08
2024-03-29T00:52:41.807Z,60.68
2024-03-29T00:56:38.929Z,68.43
2024-03-29T01:00:36.903Z,64.36
2024-03-29T01:04:34.794Z,54.40
2024-03-29T01:08:32.825Z,54.38
2024-03-29T01:12:29.827Z,55.71
2024-03-29T01:16:26.825Z,57.79
2024-03-29T01:20:24.822Z,60.77
2024-03-29T01:24:21.791Z,63.67
2024-03-29T01:28:18.805Z,66.74
2024-03-29T01:32:15.776Z,59.67
2024-03-29T01:36:13.772Z,52.93
2024-03-29T01:40:11.771Z,55.18
2024-03-29T01:44:08.787Z,56.86
2024-03-29T01:48:05.751Z,59.46
2024-03-29T01:52:02.783Z,66.34
2024-03-29T01:56:00.778Z,68.95
2024-03-29T02:00:01.833Z,62.44
2024-03-29T02:03:58.739Z,55.80
2024-03-29T02:07:55.725Z,57.26
2024-03-29T02:11:52.722Z,61.07
2024-03-29T02:15:49.794Z,66.46
2024-03-29T02:19:47.743Z,62.80
2024-03-29T02:23:46.741Z,56.16
2024-03-29T02:27:43.734Z,59.92
2024-03-29T02:31:40.735Z,64.69
2024-03-29T02:35:38.733Z,61.29
2024-03-29T02:39:36.740Z,56.53
2024-03-29T02:43:34.739Z,59.37
2024-03-29T02:47:32.715Z,65.81
2024-03-29T02:51:30.791Z,63.07
2024-03-29T02:55:27.716Z,58.61
2024-03-29T02:59:25.661Z,57.28
2024-03-29T03:03:22.733Z,61.37
2024-03-29T03:07:46.669Z,67.87
2024-03-29T03:11:43.669Z,62.17
2024-03-29T03:15:40.662Z,58.27
2024-03-29T03:19:38.640Z,59.53
2024-03-29T03:23:36.800Z,67.27
2024-03-29T03:27:33.656Z,66.45
2024-03-29T03:31:31.636Z,62.06
2024-03-29T03:35:29.204Z,59.16
2024-03-29T03:39:27.648Z,57.06
2024-03-29T03:43:25.724Z,60.46
2024-03-29T03:47:23.633Z,68.17
2024-03-29T03:51:20.627Z,65.56
2024-03-29T03:55:17.610Z,61.87
2024-03-29T03:59:14.674Z,58.63
2024-03-29T04:03:12.594Z,57.12
2024-03-29T04:07:09.615Z,60.63
2024-03-29T04:11:06.670Z,67.56
2024-03-29T04:15:03.585Z,62.11
2024-03-29T04:19:01.638Z,57.64
2024-03-29T04:22:58.606Z,58.63
2024-03-29T04:26:55.596Z,66.53
2024-03-29T04:30:52.570Z,67.44
2024-03-29T04:34:50.579Z,63.64
2024-03-29T04:38:48.666Z,61.02
2024-03-29T04:42:45.534Z,55.69
2024-03-29T04:46:44.546Z,56.16
2024-03-29T04:50:42.563Z,58.81
2024-03-29T04:54:39.557Z,61.35
2024-03-29T04:58:41.555Z,69.73
2024-03-29T05:02:38.537Z,62.15
2024-03-29T05:06:35.548Z,56.48
2024-03-29T05:10:32.549Z,55.15
2024-03-29T05:14:31.556Z,57.10
2024-03-29T05:18:29.586Z,60.08
2024-03-29T05:22:26.489Z,62.55
2024-03-29T05:26:24.506Z,68.32
2024-03-29T05:30:21.513Z,61.79
2024-03-29T05:34:18.544Z,55.14
2024-03-29T05:38:15.510Z,55.34
2024-03-29T05:42:13.549Z,57.41
2024-03-29T05:46:10.506Z,59.05
2024-03-29T05:50:08.551Z,66.39
2024-03-29T05:54:05.483Z,62.67
2024-03-29T05:58:02.529Z,56.09
2024-03-29T06:02:00.460Z,55.31
2024-03-29T06:05:57.459Z,57.56
2024-03-29T06:09:54.488Z,61.68
2024-03-29T06:14:09.466Z,68.50
2024-03-29T06:18:06.457Z,63.34
2024-03-29T06:22:03.441Z,56.30
2024-03-29T06:26:01.484Z,56.17
2024-03-29T06:29:58.427Z,59.98
2024-03-29T06:33:35.734Z,60.65
2024-03-29T06:36:59.159Z,66.31
2024-03-29T06:40:22.610Z,62.62
2024-03-29T06:43:46.441Z,56.09
2024-03-29T06:47:10.573Z,56.57
2024-03-29T06:50:34.071Z,58.66
2024-03-29T06:53:58.010Z,60.28
2024-03-29T06:57:26.119Z,63.74
2024-03-29T07:00:50.220Z,65.16
2024-03-29T07:04:13.780Z,58.40
2024-03-29T07:07:37.858Z,54.04
2024-03-29T07:11:04.916Z,55.94
2024-03-29T07:14:29.418Z,58.85
2024-03-29T07:17:53.566Z,60.51
2024-03-29T07:21:17.454Z,62.12
2024-03-29T07:24:41.098Z,63.75
2024-03-29T07:28:05.055Z,56.27
2024-03-29T07:31:28.586Z,54.87
2024-03-29T07:34:52.040Z,56.03
2024-03-29T07:38:16.394Z,57.12
2024-03-29T07:41:40.035Z,59.79
2024-03-29T07:45:04.080Z,60.34
2024-03-29T07:48:27.702Z,61.07
2024-03-29T07:51:51.349Z,61.08
2024-03-29T07:55:15.365Z,61.69
2024-03-29T07:58:38.873Z,63.69
2024-03-29T08:02:03.415Z,56.35
2024-03-29T08:05:26.996Z,54.10
2024-03-29T08:08:51.685Z,54.98
2024-03-29T08:12:15.176Z,56.98
2024-03-29T08:15:38.758Z,57.24
2024-03-29T08:19:02.241Z,57.01
2024-03-29T08:22:25.822Z,57.29
2024-03-29T08:25:49.899Z,59.00
2024-03-29T08:29:13.429Z,57.99
2024-03-29T08:32:36.922Z,58.06
2024-03-29T08:36:00.480Z,57.81
2024-03-29T08:39:23.993Z,58.55
2024-03-29T08:42:47.563Z,59.16
2024-03-29T08:46:11.085Z,58.77
2024-03-29T08:49:34.612Z,57.27
2024-03-29T08:52:58.290Z,57.28
2024-03-29T08:56:21.829Z,57.79
2024-03-29T08:59:46.347Z,57.09
2024-03-29T09:03:09.883Z,56.96
2024-03-29T09:06:33.516Z,56.66
2024-03-29T09:09:57.004Z,56.21
2024-03-29T09:13:20.488Z,55.86
2024-03-29T09:16:44.041Z,56.27
2024-03-29T09:20:08.820Z,56.88
2024-03-29T09:23:32.313Z,55.83
2024-03-29T09:26:55.847Z,54.66
2024-03-29T09:30:19.885Z,54.34
2024-03-29T09:33:43.301Z,55.40
2024-03-29T09:37:06.755Z,54.88
2024-03-29T09:40:30.377Z,52.99
2024-03-29T09:43:55.828Z,53.72
2024-03-29T09:47:20.488Z,54.94
2024-03-29T09:50:44.111Z,54.45
2024-03-29T09:54:12.852Z,54.07
2024-03-29T09:57:37.224Z,50.14
2024-03-29T10:01:00.732Z,50.07
2024-03-29T10:04:25.997Z,50.20
2024-03-29T10:07:50.041Z,50.83
2024-03-29T10:11:13.731Z,51.71
2024-03-29T10:14:50.249Z,52.04
2024-03-29T10:18:13.825Z,51.74
2024-03-29T10:21:37.731Z,51.09
2024-03-29T10:25:01.213Z,51.25
2024-03-29T10:28:25.722Z,50.11
2024-03-29T10:31:50.790Z,49.97
2024-03-29T10:35:14.266Z,49.37
2024-03-29T10:38:37.892Z,48.41
2024-03-29T10:42:02.121Z,49.82
2024-03-29T10:45:26.445Z,49.41
2024-03-29T10:48:51.115Z,48.99
2024-03-29T10:52:18.113Z,48.53
2024-03-29T10:55:42.363Z,48.57
2024-03-29T10:59:23.276Z,47.71
2024-03-29T11:03:05.380Z,48.59
2024-03-29T11:06:33.269Z,48.78
2024-03-29T11:10:02.366Z,49.01
2024-03-29T11:14:08.008Z,48.80
2024-03-29T11:17:32.858Z,49.07
2024-03-29T11:20:59.766Z,49.62
2024-03-29T11:24:25.353Z,49.21
2024-03-29T11:27:49.836Z,48.92
2024-03-29T11:31:15.715Z,47.89
2024-03-29T11:34:45.935Z,47.97
2024-03-29T11:38:09.728Z,47.10
2024-03-29T11:41:33.403Z,46.26
2024-03-29T11:44:56.984Z,46.54
2024-03-29T11:48:28.580Z,46.26
2024-03-29T11:51:52.171Z,45.79
2024-03-29T11:55:16.192Z,45.32
2024-03-29T11:58:40.093Z,45.62
2024-03-29T12:02:04.186Z,46.16
2024-03-29T12:05:27.754Z,45.26
2024-03-29T12:08:54.170Z,45.67
2024-03-29T12:12:18.681Z,46.30
2024-03-29T12:15:42.427Z,45.14
2024-03-29T12:19:05.916Z,44.96
2024-03-29T12:22:29.391Z,43.69
2024-03-29T12:25:58.568Z,42.98
2024-03-29T12:29:22.499Z,43.03
2024-03-29T12:32:46.237Z,42.96
2024-03-29T12:36:09.921Z,42.01
2024-03-29T12:39:34.693Z,42.19
2024-03-29T12:42:59.584Z,41.76
2024-03-29T12:46:23.156Z,41.62
2024-03-29T12:49:46.621Z,40.95
2024-03-29T12:53:12.641Z,40.37
2024-03-29T12:56:37.661Z,40.41
2024-03-29T13:00:02.036Z,40.09
2024-03-29T13:03:26.107Z,38.90
2024-03-29T13:06:50.192Z,37.90
2024-03-29T13:10:15.793Z,39.14
2024-03-29T13:13:39.466Z,38.55
2024-03-29T13:17:03.142Z,37.12
2024-03-29T13:20:26.606Z,37.97
2024-03-29T13:23:50.245Z,37.57
2024-03-29T13:27:14.413Z,37.71
2024-03-29T13:30:43.939Z,37.32
2024-03-29T13:34:13.262Z,37.46
2024-03-29T13:37:41.946Z,36.78
2024-03-29T13:41:06.524Z,36.52
2024-03-29T13:44:32.084Z,36.84
2024-03-29T13:47:56.512Z,36.82
2024-03-29T13:51:20.103Z,36.33
2024-03-29T13:54:47.774Z,35.82
2024-03-29T13:58:11.568Z,34.95
2024-03-29T14:01:35.280Z,35.37
2024-03-29T14:04:59.618Z,34.36
2024-03-29T14:08:23.102Z,34.77
2024-03-29T14:11:47.894Z,34.02
2024-03-29T14:15:11.353Z,34.32
2024-03-29T14:18:38.172Z,34.20
2024-03-29T14:22:05.392Z,33.70
2024-03-29T14:25:28.976Z,33.96
2024-03-29T14:28:52.557Z,33.98
2024-03-29T14:32:16.113Z,34.40
2024-03-29T14:35:39.950Z,34.70
2024-03-29T14:39:03.419Z,34.73
2024-03-29T14:42:27.044Z,34.48
2024-03-29T14:45:51.280Z,34.75
2024-03-29T14:49:14.989Z,34.54
2024-03-29T14:52:41.489Z,34.33
2024-03-29T14:56:13.506Z,34.53
2024-03-29T14:59:41.707Z,34.48
2024-03-29T15:03:05.415Z,34.48
2024-03-29T15:06:29.123Z,34.82
2024-03-29T15:09:52.981Z,34.02
2024-03-29T15:13:16.450Z,33.39
2024-03-29T15:16:39.950Z,33.38
2024-03-29T15:20:06.128Z,33.20
2024-03-29T15:23:30.471Z,32.53
2024-03-29T15:26:59.159Z,32.67
2024-03-29T15:30:22.655Z,32.81
2024-03-29T15:33:46.246Z,33.07
2024-03-29T15:37:09.736Z,33.36
2024-03-29T15:40:33.199Z,33.99
2024-03-29T15:43:58.845Z,34.26
2024-03-29T15:47:23.067Z,34.45
2024-03-29T15:50:48.085Z,35.13
2024-03-29T15:54:17.399Z,35.23
2024-03-29T15:57:42.221Z,35.44
2024-03-29T16:01:06.003Z,35.87
2024-03-29T16:04:29.634Z,36.23
2024-03-29T16:07:53.397Z,36.44
2024-03-29T16:11:17.236Z,36.77
2024-03-29T16:14:40.754Z,37.13
2024-03-29T16:18:04.456Z,37.52
2024-03-29T16:21:28.422Z,37.68
2024-03-29T16:24:51.915Z,37.87
2024-03-29T16:28:16.288Z,38.10
2024-03-29T16:31:39.884Z,38.36
2024-03-29T16:35:03.438Z,38.45
2024-03-29T16:38:27.010Z,38.57
2024-03-29T16:41:50.970Z,38.84
2024-03-29T16:45:14.550Z,38.98
2024-03-29T16:48:38.164Z,39.31
2024-03-29T16:52:01.676Z,39.55
2024-03-29T16:55:26.430Z,39.77
2024-03-29T16:58:50.086Z,40.04
2024-03-29T17:02:13.801Z,40.46
2024-03-29T17:05:37.490Z,40.71
2024-03-29T17:09:01.056Z,41.03
2024-03-29T17:12:26.143Z,41.29
2024-03-29T17:15:50.646Z,41.72
2024-03-29T17:19:14.423Z,41.96
2024-03-29T17:22:39.108Z,42.22
2024-03-29T17:26:02.567Z,42.64
2024-03-29T17:29:26.815Z,42.80
2024-03-29T17:32:50.623Z,43.24
2024-03-29T17:36:14.068Z,43.47
2024-03-29T17:39:37.618Z,43.70
2024-03-29T17:43:01.239Z,43.89
2024-03-29T17:46:24.887Z,44.08
2024-03-29T17:49:48.426Z,44.56
2024-03-29T17:53:12.138Z,44.70
2024-03-29T17:56:35.672Z,44.99
2024-03-29T18:00:00.494Z,45.10
2024-03-29T18:03:24.642Z,45.39
2024-03-29T18:06:48.281Z,45.56
2024-03-29T18:10:12.409Z,46.34
2024-03-29T18:13:37.424Z,46.18
2024-03-29T18:17:00.987Z,46.43
2024-03-29T18:20:24.583Z,46.53
2024-03-29T18:23:48.079Z,46.95
2024-03-29T18:27:11.574Z,47.36
2024-03-29T18:30:36.892Z,47.71
2024-03-29T18:34:00.511Z,47.89
2024-03-29T18:37:24.048Z,48.24
2024-03-29T18:40:48.515Z,48.33
2024-03-29T18:44:11.997Z,48.70
2024-03-29T18:47:35.580Z,48.95
2024-03-29T18:51:00.453Z,49.57
2024-03-29T18:54:24.209Z,50.15
2024-03-29T18:57:47.691Z,50.15
2024-03-29T19:01:11.111Z,50.18
2024-03-29T19:04:35.243Z,50.27
2024-03-29T19:07:59.069Z,50.42
2024-03-29T19:11:24.975Z,50.48
2024-03-29T19:14:49.210Z,50.68
2024-03-29T19:18:14.524Z,50.98
2024-03-29T19:21:39.708Z,51.33
2024-03-29T19:25:03.215Z,52.05
2024-03-29T19:28:28.140Z,51.64
2024-03-29T19:31:51.734Z,52.07
2024-03-29T19:35:15.368Z,52.24
2024-03-29T19:38:38.861Z,52.28
2024-03-29T19:42:02.658Z,52.54
2024-03-29T19:45:26.258Z,53.68
2024-03-29T19:48:50.356Z,53.78
2024-03-29T19:52:13.923Z,54.60
2024-03-29T19:55:37.381Z,55.17
2024-03-29T19:59:01.165Z,55.65
2024-03-29T20:02:24.826Z,57.39
2024-03-29T20:05:48.314Z,56.86
2024-03-29T20:09:11.876Z,59.15
2024-03-29T20:12:35.438Z,58.21
2024-03-29T20:15:59.105Z,58.65
2024-03-29T20:19:27.600Z,57.95
2024-03-29T20:22:52.692Z,58.23
2024-03-29T20:26:16.259Z,58.85
2024-03-29T20:29:39.831Z,59.35
2024-03-29T20:33:04.617Z,60.44
2024-03-29T20:36:28.088Z,60.50
2024-03-29T20:39:51.594Z,68.06
2024-03-29T20:43:15.148Z,65.69
2024-03-29T20:46:38.643Z,59.96
2024-03-29T20:50:02.304Z,51.99
2024-03-29T20:53:25.938Z,50.53
2024-03-29T20:56:49.786Z,51.51
2024-03-29T21:00:13.778Z,52.99
2024-03-29T21:03:54.741Z,53.71
2024-03-29T21:07:18.393Z,53.76
2024-03-29T21:10:41.920Z,55.50
2024-03-29T21:14:05.492Z,56.60
2024-03-29T21:17:29.246Z,56.59
2024-03-29T21:20:53.095Z,57.15
2024-03-29T21:24:17.748Z,58.11
2024-03-29T21:27:45.269Z,58.22
2024-03-29T21:31:08.851Z,58.30
2024-03-29T21:34:32.330Z,58.46
2024-03-29T21:37:56.206Z,59.13
2024-03-29T21:41:19.990Z,60.35
2024-03-29T21:44:43.744Z,60.95
2024-03-29T21:48:07.516Z,65.29
2024-03-29T21:51:31.207Z,70.56
2024-03-29T21:54:54.874Z,64.15
2024-03-29T21:58:18.408Z,56.30
2024-03-29T22:01:42.258Z,53.09
2024-03-29T22:05:05.957Z,53.56
2024-03-29T22:08:29.491Z,54.30
2024-03-29T22:11:53.064Z,55.26
2024-03-29T22:15:36.542Z,56.46
2024-03-29T22:19:33.495Z,57.21
2024-03-29T22:23:31.469Z,57.88
2024-03-29T22:27:28.513Z,58.81
2024-03-29T22:31:26.467Z,60.59
2024-03-29T22:35:23.549Z,60.97
2024-03-29T22:39:20.457Z,61.60
2024-03-29T22:43:17.440Z,71.80
2024-03-29T22:47:15.457Z,67.41
2024-03-29T22:51:13.423Z,60.77
2024-03-29T22:55:10.499Z,53.11
2024-03-29T22:59:10.462Z,52.06
2024-03-29T23:03:07.408Z,52.81
2024-03-29T23:07:12.426Z,54.34
2024-03-29T23:11:10.427Z,55.74
2024-03-29T23:15:07.474Z,57.24
2024-03-29T23:19:05.399Z,57.33
2024-03-29T23:23:05.388Z,58.79
2024-03-29T23:27:02.421Z,59.58
2024-03-29T23:31:00.418Z,60.94
2024-03-29T23:34:57.375Z,70.58
2024-03-29T23:38:54.393Z,68.88
2024-03-29T23:42:52.413Z,62.33
2024-03-29T23:46:49.397Z,54.13
2024-03-29T23:50:46.405Z,53.70
2024-03-29T23:54:43.377Z,55.91
2024-03-29T23:58:41.382Z,57.32
